Time;durP1;ratioP1;P1;durP2;ratioP2;P2;SDS_P1;SDS_P2;PMS_P1;PMS_P2;Temp;Humidity;BMP_temperature;BMP_pressure;BME280_temperature;BME280_humidity;BME280_pressure;Samples;Min_cycle;Max_cycle;Signal;HPM_P1;HPM_P2
2023/03/24 00:01:59;;;;;;;7.38;2.97;;;;;;;11.17;100.00;99804.75;5109014;28;20108;-68
2023/03/24 00:04:26;;;;;;;5.00;2.20;;;;;;;11.18;100.00;99795.69;5112120;28;20536;-68
2023/03/24 00:06:52;;;;;;;8.10;2.50;;;;;;;11.16;100.00;99793.25;5113142;28;20039;-68
2023/03/24 00:09:18;;;;;;;3.65;1.95;;;;;;;11.09;100.00;99779.19;5113215;28;20019;-68
2023/03/24 00:11:44;;;;;;;2.60;2.13;;;;;;;11.16;100.00;99779.06;5113349;28;20100;-69
2023/03/24 00:14:11;;;;;;;4.88;2.85;;;;;;;11.16;100.00;99765.72;5113122;28;20028;-68
2023/03/24 00:16:41;;;;;;;7.80;2.50;;;;;;;11.18;100.00;99767.13;5112932;28;20016;-68
2023/03/24 00:19:12;;;;;;;4.35;2.72;;;;;;;11.19;100.00;99767.97;5112996;28;20039;-68
2023/03/24 00:21:38;;;;;;;6.20;4.22;;;;;;;11.23;100.00;99761.13;5113136;28;20393;-69
2023/03/24 00:24:06;;;;;;;5.38;2.72;;;;;;;11.25;100.00;99761.72;5112964;28;20027;-68
2023/03/24 00:26:32;;;;;;;4.80;2.40;;;;;;;11.25;100.00;99755.56;5112860;28;20094;-68
2023/03/24 00:28:58;;;;;;;6.50;2.33;;;;;;;11.27;100.00;99753.50;5112528;28;20035;-68
2023/03/24 00:31:25;;;;;;;6.82;2.17;;;;;;;11.28;100.00;99755.09;5112844;28;20541;-68
2023/03/24 00:33:50;;;;;;;5.28;2.22;;;;;;;11.34;100.00;99755.03;5112746;28;20044;-69
2023/03/24 00:36:19;;;;;;;3.03;2.17;;;;;;;11.38;100.00;99752.69;5112644;28;20031;-69
2023/03/24 00:38:46;;;;;;;3.10;2.47;;;;;;;11.40;100.00;99753.28;5112758;28;20492;-68
2023/03/24 00:41:12;;;;;;;4.20;2.35;;;;;;;11.45;100.00;99748.06;5112684;28;20398;-68
2023/03/24 00:43:38;;;;;;;5.68;2.92;;;;;;;11.49;100.00;99753.75;5112596;28;20034;-69
2023/03/24 00:46:10;;;;;;;4.82;2.08;;;;;;;11.53;100.00;99739.72;5112369;28;20028;-69
2023/03/24 00:48:37;;;;;;;5.72;2.22;;;;;;;11.54;100.00;99729.84;5112569;28;20031;-68
2023/03/24 00:51:06;;;;;;;3.35;2.13;;;;;;;11.58;100.00;99725.66;5112489;28;20465;-68
2023/03/24 00:53:33;;;;;;;5.85;2.55;;;;;;;11.54;100.00;99703.97;5112471;28;20028;-68
2023/03/24 00:55:59;;;;;;;3.05;2.30;;;;;;;11.59;100.00;99713.97;5112434;28;20019;-68
2023/03/24 00:58:25;;;;;;;3.60;2.33;;;;;;;11.68;100.00;99725.09;5094536;28;20038;-68
2023/03/24 01:00:55;;;;;;;2.75;1.77;;;;;;;11.69;100.00;99727.56;5112257;28;20612;-68
2023/03/24 01:03:26;;;;;;;5.30;2.33;;;;;;;11.71;100.00;99712.13;5112284;28;20523;-68
2023/03/24 01:06:00;;;;;;;4.88;2.20;;;;;;;11.72;100.00;99704.91;5112168;28;20048;-68
2023/03/24 01:08:27;;;;;;;4.07;2.60;;;;;;;11.68;100.00;99685.84;5112137;28;20058;-68
2023/03/24 01:10:53;;;;;;;3.45;2.53;;;;;;;11.72;100.00;99696.91;5112100;28;20027;-68
2023/03/24 01:13:24;;;;;;;3.42;2.15;;;;;;;11.69;100.00;99692.84;5112178;28;20035;-68
2023/03/24 01:15:50;;;;;;;2.63;2.20;;;;;;;11.69;100.00;99698.16;5110782;28;20058;-69
2023/03/24 01:18:16;;;;;;;4.82;2.63;;;;;;;11.68;100.00;99699.19;5112405;28;20081;-68
2023/03/24 01:20:48;;;;;;;4.05;2.60;;;;;;;11.72;100.00;99694.22;5111934;28;20042;-68
2023/03/24 01:23:15;;;;;;;4.10;2.20;;;;;;;11.72;100.00;99691.56;5112090;28;20076;-68
2023/03/24 01:25:44;;;;;;;3.88;2.20;;;;;;;11.67;100.00;99688.75;5093306;28;20039;-69
2023/03/24 01:28:11;;;;;;;2.90;2.13;;;;;;;11.69;100.00;99681.34;5111830;28;20030;-68
2023/03/24 01:30:37;;;;;;;3.58;2.20;;;;;;;11.59;100.00;99671.22;5111989;28;20092;-68
2023/03/24 01:33:02;;;;;;;4.63;2.15;;;;;;;11.52;100.00;99668.66;5111723;28;20023;-68
2023/03/24 01:35:28;;;;;;;3.75;2.45;;;;;;;11.57;100.00;99678.66;5112228;28;20051;-68
2023/03/24 01:37:53;;;;;;;4.38;2.50;;;;;;;11.51;100.00;99680.41;5111554;28;20099;-68
2023/03/24 01:40:22;;;;;;;3.83;2.45;;;;;;;11.43;100.00;99674.59;5111718;28;20024;-68
2023/03/24 01:42:49;;;;;;;3.97;2.33;;;;;;;11.38;100.00;99678.75;5111400;28;20031;-69
2023/03/24 01:45:52;;;;;;;3.45;2.10;;;;;;;11.35;100.00;99668.53;5093404;28;20484;-69
2023/03/24 01:48:29;;;;;;;4.50;2.40;;;;;;;11.28;100.00;99656.34;5111557;28;20110;-69
2023/03/24 01:51:07;;;;;;;7.07;2.72;;;;;;;11.30;100.00;99662.28;5111381;28;20023;-69
2023/03/24 01:53:35;;;;;;;7.57;2.30;;;;;;;11.31;100.00;99653.22;5111269;28;20077;-68
2023/03/24 01:56:02;;;;;;;2.72;2.38;;;;;;;11.28;100.00;99654.50;5111300;28;20020;-68
2023/03/24 01:58:31;;;;;;;4.10;2.20;;;;;;;11.31;100.00;99654.03;5111055;28;20035;-69
2023/03/24 02:00:56;;;;;;;3.28;2.33;;;;;;;11.29;100.00;99644.63;5110639;28;20031;-69
2023/03/24 02:03:24;;;;;;;4.90;2.55;;;;;;;11.36;100.00;99648.00;5110856;28;20520;-69
2023/03/24 02:05:53;;;;;;;4.60;2.20;;;;;;;11.37;100.00;99646.94;5110929;28;20031;-68
2023/03/24 02:08:31;;;;;;;7.03;3.10;;;;;;;11.38;100.00;99635.25;5110897;28;20080;-69
2023/03/24 02:10:59;;;;;;;3.38;2.47;;;;;;;11.39;100.00;99637.66;5110858;28;20525;-68
2023/03/24 02:13:24;;;;;;;4.50;2.63;;;;;;;11.35;100.00;99627.69;5110810;28;20023;-68
2023/03/24 02:16:43;;;;;;;3.58;2.80;;;;;;;11.39;100.00;99640.31;5111058;28;20073;-68
2023/03/24 02:19:36;;;;;;;4.00;2.58;;;;;;;11.36;100.00;99624.78;5027771;28;20029;-69
2023/03/24 02:22:24;;;;;;;4.72;2.63;;;;;;;11.34;100.00;99626.06;5027965;28;20068;-69
2023/03/24 02:25:15;;;;;;;4.97;3.20;;;;;;;11.32;100.00;99631.66;5102320;28;20367;-68
2023/03/24 02:27:58;;;;;;;4.13;2.58;;;;;;;11.33;100.00;99627.13;5110247;28;20051;-69
2023/03/24 02:30:29;;;;;;;4.80;2.47;;;;;;;11.32;100.00;99634.31;5110473;28;20051;-68
2023/03/24 02:33:07;;;;;;;5.45;2.75;;;;;;;11.31;100.00;99630.00;5110690;28;20042;-68
2023/03/24 02:35:54;;;;;;;5.40;2.50;;;;;;;11.32;100.00;99638.84;5110315;28;20031;-69
2023/03/24 02:38:41;;;;;;;3.53;2.80;;;;;;;11.30;100.00;99647.06;5110583;28;20501;-68
2023/03/24 02:41:35;;;;;;;6.63;3.15;;;;;;;11.29;100.00;99636.59;5110675;28;20031;-69
2023/03/24 02:44:09;;;;;;;4.60;2.55;;;;;;;11.31;100.00;99624.66;5110116;28;20027;-68
2023/03/24 02:46:48;;;;;;;5.63;2.97;;;;;;;11.30;100.00;99633.72;5110192;28;20027;-68
2023/03/24 02:49:39;;;;;;;6.43;3.80;;;;;;;11.30;100.00;99623.03;5110137;28;20027;-68
2023/03/24 02:52:11;;;;;;;5.38;3.60;;;;;;;11.31;100.00;99610.50;5110014;28;20031;-69
2023/03/24 02:54:45;;;;;;;5.97;3.20;;;;;;;11.27;100.00;99631.53;5110075;28;20213;-68
2023/03/24 02:57:33;;;;;;;7.22;3.63;;;;;;;11.33;100.00;99646.59;5109713;28;20027;-68
2023/03/24 03:00:18;;;;;;;4.38;3.25;;;;;;;11.27;100.00;99634.19;5110023;28;20027;-68
2023/03/24 03:02:57;;;;;;;5.22;3.10;;;;;;;11.36;100.00;99642.66;5110035;28;20047;-68
2023/03/24 03:05:28;;;;;;;6.07;3.15;;;;;;;11.40;100.00;99668.66;5109995;28;20038;-68
2023/03/24 03:07:58;;;;;;;4.72;3.42;;;;;;;11.40;100.00;99674.00;5091759;28;20114;-69
2023/03/24 03:10:29;;;;;;;3.63;2.75;;;;;;;11.43;100.00;99672.72;5109927;28;20110;-68
2023/03/24 03:13:00;;;;;;;6.60;3.35;;;;;;;11.42;100.00;99676.44;5109977;28;20035;-68
2023/03/24 03:15:33;;;;;;;5.65;2.95;;;;;;;11.40;100.00;99678.53;5109838;28;20031;-68
2023/03/24 03:18:07;;;;;;;5.03;2.80;;;;;;;11.46;100.00;99693.63;5109833;28;20098;-68
2023/03/24 03:20:41;;;;;;;5.13;2.67;;;;;;;11.45;100.00;99693.84;5109865;28;20473;-69
2023/03/24 03:23:12;;;;;;;4.75;3.30;;;;;;;11.43;100.00;99669.25;5109973;28;20413;-68
2023/03/24 03:25:45;;;;;;;3.63;1.98;;;;;;;11.48;100.00;99718.25;5109591;28;20031;-68
2023/03/24 03:28:13;;;;;;;5.63;2.72;;;;;;;11.45;100.00;99726.72;5109770;28;20035;-69
2023/03/24 03:30:44;;;;;;;1.35;1.25;;;;;;;11.43;100.00;99728.00;5109463;28;20039;-68
2023/03/24 03:33:23;;;;;;;4.03;1.30;;;;;;;11.33;100.00;99726.69;5109720;28;20031;-68
2023/03/24 03:35:55;;;;;;;2.20;1.20;;;;;;;11.15;100.00;99740.91;5109832;28;20126;-68
2023/03/24 03:39:02;;;;;;;1.45;1.25;;;;;;;11.07;100.00;99745.75;5110938;28;20494;-69
2023/03/24 03:41:28;;;;;;;1.63;1.13;;;;;;;10.85;100.00;99772.13;5113916;28;20098;-69
2023/03/24 03:43:54;;;;;;;2.53;0.80;;;;;;;10.72;100.00;99773.13;5113946;28;20119;-68
2023/03/24 03:46:19;;;;;;;2.00;0.93;;;;;;;10.61;100.00;99792.50;5113596;28;20989;-68
2023/03/24 03:48:45;;;;;;;2.50;0.88;;;;;;;10.49;100.00;99774.59;5113781;28;20551;-68
2023/03/24 03:51:12;;;;;;;4.07;1.95;;;;;;;10.52;100.00;99774.16;5113635;28;20027;-68
2023/03/24 03:54:12;;;;;;;6.75;1.38;;;;;;;10.49;100.00;99803.09;5113660;28;20028;-68
2023/03/24 03:56:38;;;;;;;4.80;1.13;;;;;;;10.40;100.00;99799.94;5069107;28;20114;-68
2023/03/24 03:59:05;;;;;;;3.72;1.20;;;;;;;10.32;100.00;99805.53;5113491;28;20504;-68
2023/03/24 04:01:35;;;;;;;5.13;1.15;;;;;;;10.26;100.00;99807.19;5113112;28;20126;-69
2023/03/24 04:04:06;;;;;;;2.30;1.10;;;;;;;10.20;100.00;99818.75;5113631;28;20114;-69
2023/03/24 04:06:35;;;;;;;4.25;1.30;;;;;;;10.17;100.00;99821.03;5113306;28;20496;-69
2023/03/24 04:09:33;;;;;;;3.60;1.77;;;;;;;10.05;100.00;99812.94;5113336;28;20035;-68
2023/03/24 04:12:34;;;;;;;4.72;2.08;;;;;;;10.00;100.00;99821.56;5113163;28;20036;-68
2023/03/24 04:15:10;;;;;;;7.97;2.30;;;;;;;9.97;100.00;99829.19;5081775;28;20031;-72
2023/03/24 04:18:03;;;;;;;5.85;2.72;;;;;;;9.92;100.00;99842.34;5100943;28;20201;-73
2023/03/24 04:20:45;;;;;;;8.15;3.40;;;;;;;9.89;100.00;99843.59;5113087;28;20034;-73
2023/03/24 04:23:17;;;;;;;11.05;3.55;;;;;;;9.91;100.00;99862.84;5113009;28;20466;-73
2023/03/24 04:25:55;;;;;;;;;;;;;;;9.98;100.00;99878.75;5113447;28;20028;-73
2023/03/24 04:28:29;;;;;;;6.63;2.58;;;;;;;9.98;100.00;99884.09;5112694;28;19966;-73
2023/03/24 04:31:06;;;;;;;7.28;3.13;;;;;;;10.02;100.00;99886.13;5112959;28;20047;-68
2023/03/24 04:33:47;;;;;;;10.07;3.92;;;;;;;10.04;100.00;99878.72;5112912;28;20557;-68
2023/03/24 04:36:44;;;;;;;14.45;4.07;;;;;;;10.04;100.00;99878.72;5112807;28;20028;-68
2023/03/24 04:39:15;;;;;;;10.43;3.05;;;;;;;9.99;100.00;99864.44;5112644;28;20351;-68
2023/03/24 04:41:42;;;;;;;8.50;2.40;;;;;;;9.95;100.00;99882.69;5112753;28;20024;-68
2023/03/24 04:44:09;;;;;;;7.43;2.55;;;;;;;9.90;100.00;99889.69;5112843;28;20035;-68
2023/03/24 04:46:36;;;;;;;6.38;2.53;;;;;;;9.84;100.00;99894.84;5112297;28;20031;-69
2023/03/24 04:49:02;;;;;;;5.53;2.33;;;;;;;9.87;100.00;99899.72;5112168;28;20102;-68
2023/03/24 04:51:28;;;;;;;9.38;2.88;;;;;;;9.86;100.00;99911.44;5112453;28;20114;-68
2023/03/24 04:53:53;;;;;;;10.40;2.85;;;;;;;9.78;100.00;99894.91;5112411;28;20035;-68
2023/03/24 04:56:38;;;;;;;8.43;3.67;;;;;;;9.76;100.00;99905.75;5095734;28;20557;-68
2023/03/24 04:59:04;;;;;;;5.93;1.88;;;;;;;9.66;100.00;99908.88;5112462;28;20028;-68
2023/03/24 05:01:29;;;;;;;8.57;2.30;;;;;;;9.58;100.00;99913.66;5112289;28;20058;-72
2023/03/24 05:03:58;;;;;;;6.95;2.25;;;;;;;9.44;100.00;99921.69;5112202;28;20027;-73
2023/03/24 05:06:24;;;;;;;6.47;2.38;;;;;;;9.46;100.00;99923.31;5112279;28;20024;-73
2023/03/24 05:08:51;;;;;;;5.15;2.17;;;;;;;9.40;100.00;99922.31;5112174;28;20024;-73
2023/03/24 05:11:18;;;;;;;7.40;2.67;;;;;;;9.34;100.00;99926.66;5112263;28;20038;-73
2023/03/24 05:13:43;;;;;;;2.70;1.70;;;;;;;9.30;100.00;99925.47;5112015;28;20057;-73
2023/03/24 05:16:09;;;;;;;22.50;3.78;;;;;;;9.21;100.00;99922.19;5112054;28;20068;-73
2023/03/24 05:18:34;;;;;;;5.97;1.65;;;;;;;9.17;100.00;99936.97;5111858;28;20039;-73
2023/03/24 05:21:00;;;;;;;7.20;2.08;;;;;;;9.12;100.00;99935.97;5112370;28;20679;-73
2023/03/24 05:23:25;;;;;;;12.45;2.67;;;;;;;9.06;100.00;99940.25;5111899;28;20028;-73
2023/03/24 05:25:51;;;;;;;4.20;2.00;;;;;;;8.98;100.00;99943.97;5111772;28;20026;-73
2023/03/24 05:28:16;;;;;;;8.15;2.33;;;;;;;9.00;100.00;99947.22;5111835;28;20027;-72
2023/03/24 05:30:41;;;;;;;6.35;2.97;;;;;;;8.99;100.00;99960.75;5111956;28;20031;-73
2023/03/24 05:33:07;;;;;;;8.10;3.22;;;;;;;9.02;100.00;99965.66;5111666;28;20034;-73
2023/03/24 05:35:32;;;;;;;10.45;3.83;;;;;;;9.07;100.00;99959.72;5111769;28;20015;-72
2023/03/24 05:37:58;;;;;;;10.40;2.70;;;;;;;9.13;100.00;99970.31;5111523;28;20577;-72
2023/03/24 05:40:23;;;;;;;7.80;3.33;;;;;;;9.17;100.00;99973.41;5111582;28;20031;-73
2023/03/24 05:42:49;;;;;;;8.60;3.33;;;;;;;9.18;100.00;99977.69;5111189;28;20032;-73
2023/03/24 05:45:15;;;;;;;14.85;3.60;;;;;;;9.16;100.00;99963.78;5111220;28;20040;-73
2023/03/24 05:47:40;;;;;;;13.32;3.42;;;;;;;9.16;100.00;99977.88;5111049;28;20551;-73
2023/03/24 05:50:06;;;;;;;11.45;3.28;;;;;;;9.12;100.00;99981.19;5093036;28;20035;-73
2023/03/24 05:52:32;;;;;;;8.00;2.70;;;;;;;9.04;100.00;99979.56;5111014;28;20147;-73
2023/03/24 05:54:57;;;;;;;7.50;2.47;;;;;;;8.97;100.00;99984.06;5111176;28;20084;-73
2023/03/24 05:57:22;;;;;;;7.90;2.90;;;;;;;9.00;100.00;99991.63;5111125;28;20493;-73
2023/03/24 05:59:48;;;;;;;10.10;2.92;;;;;;;9.00;100.00;99995.09;5111089;28;20047;-73
2023/03/24 06:02:13;;;;;;;4.57;2.83;;;;;;;9.01;100.00;100001.22;5110172;28;20086;-73
2023/03/24 06:04:45;;;;;;;6.15;2.08;;;;;;;8.99;100.00;99987.34;5111124;28;20478;-73
2023/03/24 06:07:11;;;;;;;7.93;2.88;;;;;;;9.00;100.00;99986.31;5110635;28;20029;-76
2023/03/24 06:09:36;;;;;;;7.57;2.60;;;;;;;9.05;100.00;99986.50;5110629;28;20020;-74
2023/03/24 06:12:03;;;;;;;11.15;4.20;;;;;;;9.06;100.00;99987.31;5110601;28;20039;-75
2023/03/24 06:14:29;;;;;;;6.60;2.50;;;;;;;9.09;100.00;99985.09;5110481;28;20034;-74
2023/03/24 06:16:58;;;;;;;13.95;3.17;;;;;;;9.27;100.00;99983.59;5110632;28;20039;-73
2023/03/24 06:19:29;;;;;;;10.65;2.28;;;;;;;9.35;100.00;99994.84;5110891;28;20390;-73
2023/03/24 06:21:54;;;;;;;6.43;2.65;;;;;;;9.41;100.00;99996.66;5110863;28;20032;-74
2023/03/24 06:24:20;;;;;;;11.10;3.55;;;;;;;9.50;100.00;99999.88;5076743;28;20035;-73
2023/03/24 06:26:48;;;;;;;7.43;2.28;;;;;;;9.51;100.00;99998.03;5110273;28;20031;-73
2023/03/24 06:29:17;;;;;;;11.30;2.55;;;;;;;9.66;100.00;100009.25;5110203;28;20055;-72
2023/03/24 06:31:43;;;;;;;7.13;2.00;;;;;;;9.71;100.00;100009.41;5103002;28;20054;-70
2023/03/24 06:34:08;;;;;;;10.88;2.85;;;;;;;9.80;100.00;100020.66;5102926;28;20474;-71
2023/03/24 06:36:34;;;;;;;11.43;2.22;;;;;;;9.85;100.00;100007.50;5103407;28;20081;-70
2023/03/24 06:39:04;;;;;;;9.63;2.47;;;;;;;9.93;100.00;100011.78;5103552;28;20722;-70
2023/03/24 06:41:30;;;;;;;14.55;3.13;;;;;;;9.91;100.00;100016.53;5102823;28;20024;-70
2023/03/24 06:43:56;;;;;;;3.20;1.88;;;;;;;9.82;100.00;100015.94;5103291;28;20075;-70
2023/03/24 06:46:21;;;;;;;6.18;1.80;;;;;;;9.72;100.00;100028.88;5085259;28;20035;-71
2023/03/24 06:48:47;;;;;;;4.13;1.50;;;;;;;9.68;100.00;100031.16;5085543;28;20170;-70
2023/03/24 06:51:13;;;;;;;4.82;1.98;;;;;;;9.61;100.00;100025.84;5102479;28;20935;-70
2023/03/24 06:53:40;;;;;;;8.13;2.05;;;;;;;9.78;100.00;100026.19;5085196;28;20110;-70
2023/03/24 06:56:06;;;;;;;11.15;2.03;;;;;;;9.85;100.00;100037.66;5103027;28;20032;-71
2023/03/24 06:58:31;;;;;;;8.60;1.52;;;;;;;9.94;100.00;100030.22;5102869;28;20023;-70
2023/03/24 07:01:00;;;;;;;6.72;1.90;;;;;;;10.03;100.00;100030.78;5102114;28;20382;-72
2023/03/24 07:03:25;;;;;;;6.13;1.48;;;;;;;10.10;100.00;100028.91;5102210;28;20036;-75
2023/03/24 07:05:51;;;;;;;7.43;3.08;;;;;;;10.11;100.00;100030.53;5102392;28;20030;-75
2023/03/24 07:08:16;;;;;;;5.97;2.45;;;;;;;10.12;100.00;100029.50;5102085;28;20106;-72
2023/03/24 07:10:42;;;;;;;10.27;2.40;;;;;;;10.10;100.00;100031.56;5083846;28;20067;-75
2023/03/24 07:13:08;;;;;;;11.63;2.92;;;;;;;10.22;100.00;100047.72;5102304;28;20033;-72
2023/03/24 07:15:34;;;;;;;12.52;1.73;;;;;;;10.19;100.00;100035.63;5102337;28;20031;-72
2023/03/24 07:18:00;;;;;;;7.03;2.63;;;;;;;10.37;100.00;100042.09;5102478;28;20046;-72
2023/03/24 07:20:25;;;;;;;13.20;2.42;;;;;;;10.50;100.00;100053.47;5101793;28;20039;-72
2023/03/24 07:22:55;;;;;;;10.57;2.47;;;;;;;10.49;100.00;100059.03;5083904;28;20080;-72
2023/03/24 07:25:20;;;;;;;8.45;1.80;;;;;;;10.50;100.00;100063.31;5101927;28;20028;-73
2023/03/24 07:27:46;;;;;;;12.95;3.10;;;;;;;10.51;100.00;100063.13;5101930;28;20501;-73
2023/03/24 07:30:12;;;;;;;6.00;2.25;;;;;;;10.52;100.00;100058.59;5102014;28;20402;-75
2023/03/24 07:32:38;;;;;;;12.77;2.40;;;;;;;10.55;100.00;100060.84;5100633;28;20350;-75
2023/03/24 07:35:06;;;;;;;6.88;1.90;;;;;;;10.59;100.00;100055.91;5082958;28;20148;-76
2023/03/24 07:37:32;;;;;;;11.20;3.08;;;;;;;10.74;100.00;100069.72;5102211;28;20030;-71
2023/03/24 07:39:57;;;;;;;10.63;1.85;;;;;;;10.82;100.00;100068.63;5102062;28;20027;-71
2023/03/24 07:42:24;;;;;;;16.13;2.55;;;;;;;10.87;100.00;100063.47;5102130;28;20501;-71
2023/03/24 07:44:50;;;;;;;8.88;2.58;;;;;;;11.00;100.00;100073.22;5084868;28;20023;-71
2023/03/24 07:47:16;;;;;;;7.13;2.15;;;;;;;11.06;100.00;100075.84;5084490;28;20044;-71
2023/03/24 07:49:41;;;;;;;7.47;2.28;;;;;;;11.17;100.00;100056.44;5102337;28;20034;-71
2023/03/24 07:52:07;;;;;;;11.98;3.33;;;;;;;11.33;98.97;100072.91;5101603;28;20055;-71
2023/03/24 07:54:33;;;;;;;8.45;2.22;;;;;;;11.47;99.47;100071.72;5084395;28;20023;-71
2023/03/24 07:56:59;;;;;;;13.70;3.55;;;;;;;11.66;98.17;100080.59;5084634;28;20142;-71
2023/03/24 07:59:26;;;;;;;16.10;3.83;;;;;;;11.81;96.80;100081.00;5101123;28;20024;-72
2023/03/24 08:01:52;;;;;;;8.27;1.67;;;;;;;11.79;96.07;100099.13;5059227;28;1203546;-71
2023/03/24 08:04:18;;;;;;;7.45;2.40;;;;;;;11.83;96.22;100094.94;5103000;28;20285;-71
2023/03/24 08:06:44;;;;;;;11.82;2.53;;;;;;;11.89;96.29;100106.63;5102580;28;20031;-71
2023/03/24 08:09:10;;;;;;;13.55;2.45;;;;;;;11.99;95.93;100109.59;5102836;28;20070;-71
2023/03/24 08:11:36;;;;;;;10.70;3.05;;;;;;;12.13;97.50;100112.94;5100008;28;20127;-71
2023/03/24 08:14:02;;;;;;;17.95;2.83;;;;;;;12.33;94.70;100111.84;5097552;28;20023;-70
2023/03/24 08:16:27;;;;;;;10.35;2.05;;;;;;;12.35;94.48;100115.94;5098403;28;20020;-71
2023/03/24 08:18:56;;;;;;;11.95;3.47;;;;;;;12.31;94.37;100112.06;5102320;28;20031;-70
2023/03/24 08:21:23;;;;;;;11.98;3.05;;;;;;;12.15;95.12;100116.19;5101960;28;20628;-70
2023/03/24 08:23:48;;;;;;;7.50;2.78;;;;;;;12.01;95.65;100125.41;5101370;28;20362;-71
2023/03/24 08:26:14;;;;;;;12.07;1.88;;;;;;;11.85;95.93;100113.44;5106208;28;20118;-70
2023/03/24 08:28:40;;;;;;;8.30;1.58;;;;;;;11.77;96.51;100119.91;5088441;28;20043;-71
2023/03/24 08:31:06;;;;;;;4.68;1.75;;;;;;;11.86;94.94;100141.81;5105115;28;20054;-70
2023/03/24 08:33:32;;;;;;;7.95;2.38;;;;;;;11.81;97.21;100128.28;5106273;28;20027;-71
2023/03/24 08:35:59;;;;;;;9.18;2.38;;;;;;;11.66;96.14;100138.50;5105522;28;20092;-71
2023/03/24 08:38:29;;;;;;;11.15;2.05;;;;;;;11.56;95.57;100139.84;5105717;28;20027;-70
2023/03/24 08:41:00;;;;;;;9.77;1.55;;;;;;;11.73;96.07;100139.25;5079315;28;20016;-69
2023/03/24 08:43:30;;;;;;;10.93;2.25;;;;;;;11.98;96.89;100124.00;5105814;28;20084;-72
2023/03/24 08:45:56;;;;;;;8.18;2.17;;;;;;;12.13;93.39;100146.84;5105446;28;20016;-71
2023/03/24 08:48:22;;;;;;;7.85;2.42;;;;;;;12.14;93.71;100143.16;5105625;28;20031;-71
2023/03/24 08:50:48;;;;;;;8.98;1.83;;;;;;;12.20;92.53;100139.56;5105331;28;20077;-72
2023/03/24 08:53:13;;;;;;;9.90;3.05;;;;;;;12.21;92.48;100149.25;5105635;28;20450;-74
2023/03/24 08:55:42;;;;;;;9.82;2.22;;;;;;;12.12;91.22;100145.22;5106125;28;20030;-72
2023/03/24 08:58:15;;;;;;;6.78;1.98;;;;;;;12.07;90.01;100146.72;5074110;28;20077;-74
2023/03/24 09:00:40;;;;;;;19.92;3.47;;;;;;;12.13;91.36;100147.69;5112409;28;20040;-75
2023/03/24 09:03:06;;;;;;;7.45;2.42;;;;;;;12.25;90.59;100145.88;5093907;28;20052;-75
2023/03/24 09:05:32;;;;;;;6.20;2.80;;;;;;;12.25;90.78;100143.19;5112305;28;20040;-75
2023/03/24 09:07:59;;;;;;;4.45;2.10;;;;;;;12.20;89.86;100150.28;5112437;28;20545;-75
2023/03/24 09:10:25;;;;;;;10.18;3.78;;;;;;;12.07;91.34;100137.88;5112445;28;20058;-75
2023/03/24 09:12:50;;;;;;;5.85;1.95;;;;;;;12.02;92.15;100145.75;5112310;28;20406;-75
2023/03/24 09:15:16;;;;;;;11.05;2.80;;;;;;;12.01;93.18;100150.28;5112228;28;20114;-75
2023/03/24 09:17:41;;;;;;;9.20;1.67;;;;;;;12.06;92.94;100144.28;5112273;28;20051;-75
2023/03/24 09:20:10;;;;;;;10.80;2.70;;;;;;;12.16;92.14;100155.25;5112008;28;20036;-75
2023/03/24 09:22:40;;;;;;;9.52;4.00;;;;;;;12.20;92.36;100153.75;5112108;28;20024;-74
2023/03/24 09:25:08;;;;;;;4.95;3.20;;;;;;;12.21;91.78;100158.06;5111904;28;20526;-75
2023/03/24 09:27:33;;;;;;;13.02;4.03;;;;;;;12.27;93.18;100159.84;5112031;28;20047;-75
2023/03/24 09:29:59;;;;;;;9.50;2.40;;;;;;;12.43;91.15;100166.44;5111808;28;20031;-75
2023/03/24 09:32:24;;;;;;;4.53;1.95;;;;;;;12.46;90.57;100160.63;5111960;28;20035;-75
2023/03/24 09:34:50;;;;;;;11.00;3.80;;;;;;;12.58;91.43;100163.38;5095360;28;20028;-75
2023/03/24 09:37:15;;;;;;;6.28;2.53;;;;;;;12.74;89.94;100158.41;5110886;28;20024;-75
2023/03/24 09:39:40;;;;;;;6.25;2.58;;;;;;;12.79;88.08;100167.41;5112036;28;20039;-75
2023/03/24 09:42:13;;;;;;;11.10;3.80;;;;;;;12.69;87.20;100170.59;5111783;28;20024;-75
2023/03/24 09:44:45;;;;;;;7.00;2.08;;;;;;;12.40;88.75;100155.38;5098156;28;20023;-75
2023/03/24 09:47:25;;;;;;;8.70;2.75;;;;;;;12.27;89.39;100172.41;5111690;28;20389;-75
2023/03/24 09:49:52;;;;;;;10.52;3.83;;;;;;;12.05;94.43;100180.03;5111601;28;20114;-75
2023/03/24 09:52:30;;;;;;;4.13;1.80;;;;;;;11.96;96.14;100182.19;5111598;28;20016;-75
2023/03/24 09:54:58;;;;;;;12.18;2.40;;;;;;;11.89;97.24;100188.66;5095325;28;20033;-75
2023/03/24 09:57:28;;;;;;;10.52;3.38;;;;;;;11.80;97.04;100177.41;5111290;28;20089;-75
2023/03/24 09:59:54;;;;;;;14.70;5.18;;;;;;;11.89;97.20;100191.31;5095222;28;20023;-75
2023/03/24 10:02:21;;;;;;;13.68;3.53;;;;;;;11.95;99.06;100177.09;5095100;28;20051;-75
2023/03/24 10:04:48;;;;;;;10.68;4.45;;;;;;;12.31;98.79;100189.63;5111191;28;20045;-75
2023/03/24 10:07:37;;;;;;;12.77;3.60;;;;;;;12.63;97.23;100190.25;5111223;28;20030;-75
2023/03/24 10:10:13;;;;;;;12.30;3.65;;;;;;;12.83;95.28;100198.00;5111109;28;20574;-75
2023/03/24 10:12:56;;;;;;;6.55;2.63;;;;;;;12.84;93.12;100196.16;5111176;28;20111;-75
2023/03/24 10:15:49;;;;;;;7.15;2.78;;;;;;;12.91;92.50;100207.56;5108827;28;20073;-75
2023/03/24 10:18:34;;;;;;;14.48;4.75;;;;;;;12.92;91.74;100211.88;5111123;28;20423;-75
2023/03/24 10:21:09;;;;;;;5.68;2.15;;;;;;;12.88;89.21;100198.13;5110752;28;20031;-75
2023/03/24 10:23:53;;;;;;;10.93;2.50;;;;;;;12.90;87.73;100214.78;5110790;28;20031;-75
2023/03/24 10:26:33;;;;;;;6.25;2.80;;;;;;;12.87;89.58;100198.38;5110803;28;20389;-75
2023/03/24 10:29:20;;;;;;;6.53;2.80;;;;;;;13.03;89.89;100212.97;5110753;28;20427;-75
2023/03/24 10:31:51;;;;;;;7.40;2.15;;;;;;;13.03;89.61;100199.56;5110891;28;20024;-75
2023/03/24 10:34:17;;;;;;;5.78;1.92;;;;;;;13.18;88.71;100212.50;5110958;28;20031;-75
2023/03/24 10:36:43;;;;;;;8.52;2.42;;;;;;;13.12;86.96;100204.34;5110874;28;20140;-75
2023/03/24 10:39:18;;;;;;;4.00;2.00;;;;;;;13.04;87.66;100202.00;5110556;28;20066;-71
2023/03/24 10:41:43;;;;;;;7.75;2.72;;;;;;;13.00;88.75;100200.03;5110567;28;20462;-71
2023/03/24 10:44:11;;;;;;;11.05;3.42;;;;;;;12.96;88.37;100190.81;5110330;28;20122;-70
2023/03/24 10:46:44;;;;;;;8.95;2.35;;;;;;;12.79;88.80;100196.81;5110116;28;20068;-70
2023/03/24 10:49:16;;;;;;;13.38;2.75;;;;;;;12.65;92.40;100198.03;5110696;28;20107;-71
2023/03/24 10:51:49;;;;;;;8.32;2.67;;;;;;;12.69;91.42;100202.72;5110051;28;20478;-71
2023/03/24 10:54:24;;;;;;;6.25;2.60;;;;;;;12.92;90.69;100206.53;5110437;28;20033;-71
2023/03/24 10:56:50;;;;;;;7.47;2.70;;;;;;;13.30;89.74;100197.31;5092096;28;20011;-71
2023/03/24 10:59:21;;;;;;;8.90;2.35;;;;;;;13.56;87.48;100191.53;5110366;28;20028;-71
2023/03/24 11:01:47;;;;;;;3.73;2.00;;;;;;;13.59;83.36;100192.94;5110135;28;20062;-71
2023/03/24 11:04:18;;;;;;;11.60;2.30;;;;;;;13.52;83.63;100190.38;5110329;28;20106;-71
2023/03/24 11:06:59;;;;;;;8.77;2.30;;;;;;;13.39;83.04;100204.00;5110132;28;20423;-71
2023/03/24 11:09:25;;;;;;;12.52;4.50;;;;;;;13.41;81.42;100185.81;5110289;28;20119;-71
2023/03/24 11:11:51;;;;;;;6.05;2.30;;;;;;;13.63;82.52;100188.75;5110189;28;20111;-71
2023/03/24 11:14:27;;;;;;;7.75;1.80;;;;;;;13.81;82.84;100188.63;5110024;28;20035;-71
2023/03/24 11:17:04;;;;;;;7.15;2.75;;;;;;;13.91;80.71;100188.03;5109887;28;20110;-71
2023/03/24 11:19:31;;;;;;;8.50;2.30;;;;;;;14.23;82.48;100185.75;5109885;28;20094;-71
2023/03/24 11:22:01;;;;;;;9.40;3.00;;;;;;;14.42;79.41;100194.44;5109838;28;20076;-71
2023/03/24 11:24:28;;;;;;;9.60;1.98;;;;;;;14.77;83.23;100198.09;5109764;28;20019;-71
2023/03/24 11:27:00;;;;;;;7.47;2.65;;;;;;;14.99;81.63;100195.53;5091364;28;20048;-71
2023/03/24 11:29:29;;;;;;;7.15;2.40;;;;;;;15.08;80.64;100196.75;5109821;28;20055;-71
2023/03/24 11:32:00;;;;;;;3.50;1.75;;;;;;;14.90;74.95;100198.59;5110335;28;20712;-71
2023/03/24 11:34:36;;;;;;;8.75;2.53;;;;;;;14.61;76.21;100197.78;5109810;28;20464;-71
2023/03/24 11:37:11;;;;;;;10.07;2.72;;;;;;;14.30;79.51;100192.84;5109811;28;20019;-71
2023/03/24 11:39:36;;;;;;;6.40;2.60;;;;;;;14.02;79.80;100186.38;5109735;28;20535;-71